Abidjan, Ivory Coast

7:18 PM GMT on March 28, 2017 (GMT +0000)
Felix Houphouet-Boigny | | Change Station

Elev 26 ft 5.25 °N, 3.93 °W | Updated 18 minutes ago

Thunderstorm
Thunderstorm
82 °F
Feels Like 92 °F
N
8
Wind Variable Wind from SSW

Today
High -- | Low -- °F
--% Chance of Precip.
Yesterday
High -- | Low -- °F
Precip. -- in
Pressure 29.80 in
Visibility 6.2 miles
Clouds Few 1200 ft
Few 2000 ft
Heat Index 92 °F
Dew Point 79 °F
Humidity 89%
Rainfall 0.00 in
Snow Depth Not available.
6:16 AM 6:25 PM
New Moon, 1% visible
METAR DIAP 281900Z 20007KT 9999 TS FEW012 FEW020CB 28/26 Q1009 NOSIG
Pressure 29.80 in
Visibility 6.2 miles
Clouds Few 1200 ft
Few 2000 ft
Heat Index 92 °F
Dew Point 79 °F
Humidity 89%
Rainfall 0.00 in
Snow Depth Not available.
6:16 AM 6:25 PM
New Moon, 1% visible
METAR DIAP 281900Z 20007KT 9999 TS FEW012 FEW020CB 28/26 Q1009 NOSIG

Get Severe Weather Alerts

Thanks for signing up!

Be on the lookout for a verification email in your inbox.

You'll start receiving the daily forecast at 8 AM.

×

10-Day Weather Forecast

No radar image for this location.
×

Almanac

Astronomy

Mar. 28, 2017 Rise Set
Actual Time
Civil Twilight
Nautical Twilight
Astronomical Twilight
Moon
Length of Visible Light
Length of Day
Tomorrow will be .
, % of the Moon is Illuminated

Today's Extremes

Country Highs Country Lows

Community

WunderPhotos

Upload Photos

1,962,540 photos uploaded!

WunderBlog® & News

Nearby

Air Quality

  Air Quality AQ Index Pollutant
Not available.

Snow Depth

Station Depth Elevation

Earthquake Activity

City Distance Mag. Time & Date
Minimum magnitude displayed is 2.5.

Earthquake Activity

City Distance Mag. Time & Date
Minimum magnitude displayed is 2.5.

Coastal Water Temperatures

Place Temperature

Stations

Nearby Weather Stations

Station Location Temp. Windchill Dew Point Humidity Wind Precip. Elev Updated Type